sensor_id;sensor_type;location;lat;lon;timestamp;P1;durP1;ratioP1;P2;durP2;ratioP2
24891;SDS011;12954;50.688;10.908;2022-11-20T00:02:10;8.30;;;5.80;;
24891;SDS011;12954;50.688;10.908;2022-11-20T00:04:39;8.75;;;5.72;;
24891;SDS011;12954;50.688;10.908;2022-11-20T00:07:07;8.63;;;5.47;;
24891;SDS011;12954;50.688;10.908;2022-11-20T00:09:36;8.27;;;5.07;;
24891;SDS011;12954;50.688;10.908;2022-11-20T00:12:04;7.07;;;4.45;;
24891;SDS011;12954;50.688;10.908;2022-11-20T00:14:33;10.52;;;5.55;;
24891;SDS011;12954;50.688;10.908;2022-11-20T00:17:01;9.68;;;5.45;;
24891;SDS011;12954;50.688;10.908;2022-11-20T00:19:31;8.98;;;5.05;;
24891;SDS011;12954;50.688;10.908;2022-11-20T00:21:59;7.57;;;4.70;;
24891;SDS011;12954;50.688;10.908;2022-11-20T00:24:28;4.65;;;2.97;;
24891;SDS011;12954;50.688;10.908;2022-11-20T00:26:56;4.00;;;2.78;;
24891;SDS011;12954;50.688;10.908;2022-11-20T00:29:25;5.60;;;2.88;;
24891;SDS011;12954;50.688;10.908;2022-11-20T00:31:53;4.28;;;2.88;;
24891;SDS011;12954;50.688;10.908;2022-11-20T00:34:21;3.13;;;2.25;;
24891;SDS011;12954;50.688;10.908;2022-11-20T00:36:51;3.22;;;2.30;;
24891;SDS011;12954;50.688;10.908;2022-11-20T00:39:20;3.75;;;2.60;;
24891;SDS011;12954;50.688;10.908;2022-11-20T00:41:49;4.15;;;2.60;;
24891;SDS011;12954;50.688;10.908;2022-11-20T00:44:17;3.75;;;2.45;;
24891;SDS011;12954;50.688;10.908;2022-11-20T00:46:46;4.35;;;2.08;;
24891;SDS011;12954;50.688;10.908;2022-11-20T00:49:14;4.55;;;2.42;;
24891;SDS011;12954;50.688;10.908;2022-11-20T00:51:42;4.97;;;2.30;;
24891;SDS011;12954;50.688;10.908;2022-11-20T00:54:12;4.68;;;2.80;;
24891;SDS011;12954;50.688;10.908;2022-11-20T00:56:41;4.18;;;2.70;;
24891;SDS011;12954;50.688;10.908;2022-11-20T00:59:10;4.85;;;3.22;;
24891;SDS011;12954;50.688;10.908;2022-11-20T01:01:39;5.53;;;3.35;;
24891;SDS011;12954;50.688;10.908;2022-11-20T01:04:07;4.28;;;2.95;;
24891;SDS011;12954;50.688;10.908;2022-11-20T01:06:37;5.30;;;3.38;;
24891;SDS011;12954;50.688;10.908;2022-11-20T01:09:07;4.20;;;3.03;;
24891;SDS011;12954;50.688;10.908;2022-11-20T01:11:41;6.63;;;4.10;;
24891;SDS011;12954;50.688;10.908;2022-11-20T01:14:12;7.03;;;4.40;;
24891;SDS011;12954;50.688;10.908;2022-11-20T01:16:43;6.15;;;3.47;;
24891;SDS011;12954;50.688;10.908;2022-11-20T01:19:14;6.82;;;4.25;;
24891;SDS011;12954;50.688;10.908;2022-11-20T01:21:44;6.53;;;4.22;;
24891;SDS011;12954;50.688;10.908;2022-11-20T01:24:15;7.90;;;4.72;;
24891;SDS011;12954;50.688;10.908;2022-11-20T01:26:46;6.82;;;4.30;;
24891;SDS011;12954;50.688;10.908;2022-11-20T01:29:18;5.05;;;3.80;;
24891;SDS011;12954;50.688;10.908;2022-11-20T01:31:49;5.28;;;3.65;;
24891;SDS011;12954;50.688;10.908;2022-11-20T01:34:19;6.22;;;3.50;;
24891;SDS011;12954;50.688;10.908;2022-11-20T01:36:49;5.38;;;3.70;;
24891;SDS011;12954;50.688;10.908;2022-11-20T01:39:19;5.82;;;3.72;;
24891;SDS011;12954;50.688;10.908;2022-11-20T01:41:51;5.07;;;2.97;;
24891;SDS011;12954;50.688;10.908;2022-11-20T01:47:27;4.93;;;3.03;;
24891;SDS011;12954;50.688;10.908;2022-11-20T01:50:01;3.80;;;2.83;;
24891;SDS011;12954;50.688;10.908;2022-11-20T01:52:35;4.93;;;3.03;;
24891;SDS011;12954;50.688;10.908;2022-11-20T01:55:08;5.20;;;2.85;;
24891;SDS011;12954;50.688;10.908;2022-11-20T01:57:42;15.82;;;10.30;;
24891;SDS011;12954;50.688;10.908;2022-11-20T02:00:15;16.48;;;10.30;;
24891;SDS011;12954;50.688;10.908;2022-11-20T02:02:46;6.28;;;4.13;;
24891;SDS011;12954;50.688;10.908;2022-11-20T02:05:20;6.57;;;4.22;;
24891;SDS011;12954;50.688;10.908;2022-11-20T02:07:53;7.18;;;4.30;;
24891;SDS011;12954;50.688;10.908;2022-11-20T02:10:23;7.55;;;4.85;;
24891;SDS011;12954;50.688;10.908;2022-11-20T02:12:55;6.95;;;4.60;;
24891;SDS011;12954;50.688;10.908;2022-11-20T02:15:43;8.55;;;4.30;;
24891;SDS011;12954;50.688;10.908;2022-11-20T02:18:13;6.72;;;4.22;;
24891;SDS011;12954;50.688;10.908;2022-11-20T02:20:44;7.40;;;4.53;;
24891;SDS011;12954;50.688;10.908;2022-11-20T02:23:16;7.00;;;4.43;;
24891;SDS011;12954;50.688;10.908;2022-11-20T02:25:52;6.03;;;3.75;;
24891;SDS011;12954;50.688;10.908;2022-11-20T02:28:22;6.05;;;3.83;;
24891;SDS011;12954;50.688;10.908;2022-11-20T02:30:52;6.10;;;3.88;;
24891;SDS011;12954;50.688;10.908;2022-11-20T02:33:20;6.97;;;4.18;;
24891;SDS011;12954;50.688;10.908;2022-11-20T02:35:49;6.68;;;4.35;;
24891;SDS011;12954;50.688;10.908;2022-11-20T02:38:17;5.57;;;3.47;;
24891;SDS011;12954;50.688;10.908;2022-11-20T02:40:45;6.63;;;4.25;;
24891;SDS011;12954;50.688;10.908;2022-11-20T02:43:22;6.95;;;3.97;;
24891;SDS011;12954;50.688;10.908;2022-11-20T02:45:50;6.90;;;4.28;;
24891;SDS011;12954;50.688;10.908;2022-11-20T02:48:19;6.13;;;4.28;;
24891;SDS011;12954;50.688;10.908;2022-11-20T02:50:50;6.57;;;4.07;;
24891;SDS011;12954;50.688;10.908;2022-11-20T02:53:19;6.57;;;4.10;;
24891;SDS011;12954;50.688;10.908;2022-11-20T02:55:47;6.68;;;4.15;;
24891;SDS011;12954;50.688;10.908;2022-11-20T02:58:16;6.30;;;3.80;;
24891;SDS011;12954;50.688;10.908;2022-11-20T03:00:46;6.65;;;4.20;;
24891;SDS011;12954;50.688;10.908;2022-11-20T03:03:14;6.45;;;4.45;;
24891;SDS011;12954;50.688;10.908;2022-11-20T03:05:43;6.45;;;4.00;;
24891;SDS011;12954;50.688;10.908;2022-11-20T03:08:11;7.75;;;4.75;;
24891;SDS011;12954;50.688;10.908;2022-11-20T03:10:39;6.45;;;4.07;;
24891;SDS011;12954;50.688;10.908;2022-11-20T03:13:08;5.47;;;3.90;;
24891;SDS011;12954;50.688;10.908;2022-11-20T03:15:36;5.97;;;4.10;;
24891;SDS011;12954;50.688;10.908;2022-11-20T03:18:06;6.20;;;4.13;;
24891;SDS011;12954;50.688;10.908;2022-11-20T03:20:35;6.25;;;4.10;;
24891;SDS011;12954;50.688;10.908;2022-11-20T03:23:03;7.82;;;4.20;;
24891;SDS011;12954;50.688;10.908;2022-11-20T03:25:31;5.38;;;3.78;;
24891;SDS011;12954;50.688;10.908;2022-11-20T03:28:00;5.38;;;3.78;;
24891;SDS011;12954;50.688;10.908;2022-11-20T03:30:29;6.95;;;4.25;;
24891;SDS011;12954;50.688;10.908;2022-11-20T03:32:58;6.82;;;4.85;;
24891;SDS011;12954;50.688;10.908;2022-11-20T03:35:28;6.10;;;4.20;;
24891;SDS011;12954;50.688;10.908;2022-11-20T03:37:57;6.75;;;4.05;;
24891;SDS011;12954;50.688;10.908;2022-11-20T03:40:25;5.70;;;3.53;;
24891;SDS011;12954;50.688;10.908;2022-11-20T03:42:54;7.60;;;4.20;;
24891;SDS011;12954;50.688;10.908;2022-11-20T03:45:22;7.72;;;4.20;;
24891;SDS011;12954;50.688;10.908;2022-11-20T03:47:51;6.05;;;4.13;;
24891;SDS011;12954;50.688;10.908;2022-11-20T03:50:19;5.93;;;4.25;;
24891;SDS011;12954;50.688;10.908;2022-11-20T03:52:49;6.43;;;4.00;;
24891;SDS011;12954;50.688;10.908;2022-11-20T03:55:18;6.30;;;4.35;;
24891;SDS011;12954;50.688;10.908;2022-11-20T03:57:46;6.97;;;4.47;;
24891;SDS011;12954;50.688;10.908;2022-11-20T04:00:15;6.18;;;4.18;;
24891;SDS011;12954;50.688;10.908;2022-11-20T04:02:43;5.47;;;3.97;;
24891;SDS011;12954;50.688;10.908;2022-11-20T04:05:12;6.35;;;4.45;;
24891;SDS011;12954;50.688;10.908;2022-11-20T04:07:40;6.65;;;4.40;;
24891;SDS011;12954;50.688;10.908;2022-11-20T04:10:11;8.13;;;5.15;;
24891;SDS011;12954;50.688;10.908;2022-11-20T04:12:39;6.55;;;4.35;;
24891;SDS011;12954;50.688;10.908;2022-11-20T04:15:08;6.57;;;4.35;;
24891;SDS011;12954;50.688;10.908;2022-11-20T04:17:37;6.65;;;4.30;;
24891;SDS011;12954;50.688;10.908;2022-11-20T04:20:06;6.45;;;4.25;;
24891;SDS011;12954;50.688;10.908;2022-11-20T04:22:35;5.93;;;4.07;;
24891;SDS011;12954;50.688;10.908;2022-11-20T04:25:03;6.15;;;3.90;;
24891;SDS011;12954;50.688;10.908;2022-11-20T04:27:34;6.70;;;4.63;;
24891;SDS011;12954;50.688;10.908;2022-11-20T04:30:03;7.18;;;4.47;;
24891;SDS011;12954;50.688;10.908;2022-11-20T04:32:32;7.32;;;5.13;;
24891;SDS011;12954;50.688;10.908;2022-11-20T04:35:01;8.00;;;5.25;;
24891;SDS011;12954;50.688;10.908;2022-11-20T04:37:30;8.40;;;5.50;;
24891;SDS011;12954;50.688;10.908;2022-11-20T04:39:58;7.93;;;5.50;;
24891;SDS011;12954;50.688;10.908;2022-11-20T04:42:27;9.43;;;6.80;;
24891;SDS011;12954;50.688;10.908;2022-11-20T04:44:59;9.93;;;7.30;;
24891;SDS011;12954;50.688;10.908;2022-11-20T04:47:28;9.15;;;5.97;;
24891;SDS011;12954;50.688;10.908;2022-11-20T04:49:56;12.25;;;7.45;;
24891;SDS011;12954;50.688;10.908;2022-11-20T04:52:25;11.73;;;8.70;;
24891;SDS011;12954;50.688;10.908;2022-11-20T04:54:54;12.45;;;7.57;;
24891;SDS011;12954;50.688;10.908;2022-11-20T04:57:23;11.50;;;7.97;;
24891;SDS011;12954;50.688;10.908;2022-11-20T04:59:51;12.95;;;8.43;;
24891;SDS011;12954;50.688;10.908;2022-11-20T05:02:21;11.77;;;8.35;;
24891;SDS011;12954;50.688;10.908;2022-11-20T05:04:50;11.32;;;7.88;;
24891;SDS011;12954;50.688;10.908;2022-11-20T05:07:18;12.00;;;8.48;;
24891;SDS011;12954;50.688;10.908;2022-11-20T05:09:46;11.60;;;8.18;;
24891;SDS011;12954;50.688;10.908;2022-11-20T05:12:15;11.85;;;8.27;;
24891;SDS011;12954;50.688;10.908;2022-11-20T05:14:44;12.95;;;8.85;;
24891;SDS011;12954;50.688;10.908;2022-11-20T05:17:12;11.40;;;7.80;;
24891;SDS011;12954;50.688;10.908;2022-11-20T05:19:42;11.80;;;8.40;;
24891;SDS011;12954;50.688;10.908;2022-11-20T05:22:17;13.45;;;7.85;;
24891;SDS011;12954;50.688;10.908;2022-11-20T05:24:45;11.20;;;7.72;;
24891;SDS011;12954;50.688;10.908;2022-11-20T05:27:13;11.57;;;8.18;;
24891;SDS011;12954;50.688;10.908;2022-11-20T05:29:42;19.55;;;11.20;;
24891;SDS011;12954;50.688;10.908;2022-11-20T05:32:10;10.68;;;7.65;;
24891;SDS011;12954;50.688;10.908;2022-11-20T05:34:39;13.73;;;8.30;;
24891;SDS011;12954;50.688;10.908;2022-11-20T05:37:09;13.73;;;8.45;;
24891;SDS011;12954;50.688;10.908;2022-11-20T05:39:37;11.85;;;7.97;;
24891;SDS011;12954;50.688;10.908;2022-11-20T05:42:05;12.80;;;7.93;;
24891;SDS011;12954;50.688;10.908;2022-11-20T05:44:51;14.35;;;8.60;;
24891;SDS011;12954;50.688;10.908;2022-11-20T05:47:20;12.88;;;8.48;;
24891;SDS011;12954;50.688;10.908;2022-11-20T05:49:48;13.85;;;8.75;;
24891;SDS011;12954;50.688;10.908;2022-11-20T05:52:19;12.95;;;8.52;;
24891;SDS011;12954;50.688;10.908;2022-11-20T05:54:48;14.55;;;8.60;;
24891;SDS011;12954;50.688;10.908;2022-11-20T05:57:16;11.57;;;7.88;;
24891;SDS011;12954;50.688;10.908;2022-11-20T05:59:44;11.10;;;7.80;;
24891;SDS011;12954;50.688;10.908;2022-11-20T06:02:13;11.00;;;7.38;;
24891;SDS011;12954;50.688;10.908;2022-11-20T06:04:41;12.48;;;7.60;;
24891;SDS011;12954;50.688;10.908;2022-11-20T06:07:10;12.85;;;8.38;;
24891;SDS011;12954;50.688;10.908;2022-11-20T06:09:40;12.35;;;7.97;;
24891;SDS011;12954;50.688;10.908;2022-11-20T06:12:08;11.77;;;8.05;;
24891;SDS011;12954;50.688;10.908;2022-11-20T06:14:37;11.68;;;7.28;;
24891;SDS011;12954;50.688;10.908;2022-11-20T06:17:05;10.18;;;7.07;;
24891;SDS011;12954;50.688;10.908;2022-11-20T06:19:33;11.02;;;7.70;;
24891;SDS011;12954;50.688;10.908;2022-11-20T06:22:02;12.38;;;7.18;;
24891;SDS011;12954;50.688;10.908;2022-11-20T06:24:31;9.73;;;6.55;;
24891;SDS011;12954;50.688;10.908;2022-11-20T06:27:00;9.55;;;7.07;;
24891;SDS011;12954;50.688;10.908;2022-11-20T06:29:29;11.30;;;7.07;;
24891;SDS011;12954;50.688;10.908;2022-11-20T06:31:59;9.73;;;7.50;;
24891;SDS011;12954;50.688;10.908;2022-11-20T06:34:28;10.55;;;7.40;;
24891;SDS011;12954;50.688;10.908;2022-11-20T06:36:57;10.50;;;7.10;;
24891;SDS011;12954;50.688;10.908;2022-11-20T06:39:25;11.82;;;7.53;;
24891;SDS011;12954;50.688;10.908;2022-11-20T06:41:54;9.02;;;6.68;;
24891;SDS011;12954;50.688;10.908;2022-11-20T06:44:26;8.82;;;6.15;;
24891;SDS011;12954;50.688;10.908;2022-11-20T06:46:54;10.88;;;7.50;;
24891;SDS011;12954;50.688;10.908;2022-11-20T06:49:23;12.68;;;7.22;;
24891;SDS011;12954;50.688;10.908;2022-11-20T06:52:01;11.52;;;7.15;;
24891;SDS011;12954;50.688;10.908;2022-11-20T06:54:42;9.48;;;6.28;;
24891;SDS011;12954;50.688;10.908;2022-11-20T06:57:11;9.70;;;6.35;;
24891;SDS011;12954;50.688;10.908;2022-11-20T06:59:41;10.05;;;5.93;;
24891;SDS011;12954;50.688;10.908;2022-11-20T07:02:09;10.10;;;6.10;;
24891;SDS011;12954;50.688;10.908;2022-11-20T07:04:39;7.30;;;5.20;;
24891;SDS011;12954;50.688;10.908;2022-11-20T07:07:08;13.45;;;9.77;;
24891;SDS011;12954;50.688;10.908;2022-11-20T07:09:36;14.75;;;10.15;;
24891;SDS011;12954;50.688;10.908;2022-11-20T07:12:05;13.70;;;9.77;;
24891;SDS011;12954;50.688;10.908;2022-11-20T07:14:34;12.48;;;8.98;;
24891;SDS011;12954;50.688;10.908;2022-11-20T07:17:04;13.63;;;9.48;;
24891;SDS011;12954;50.688;10.908;2022-11-20T07:19:32;13.35;;;8.88;;
24891;SDS011;12954;50.688;10.908;2022-11-20T07:22:01;12.60;;;9.52;;
24891;SDS011;12954;50.688;10.908;2022-11-20T07:24:29;18.70;;;12.30;;
24891;SDS011;12954;50.688;10.908;2022-11-20T07:26:58;31.33;;;19.30;;
24891;SDS011;12954;50.688;10.908;2022-11-20T07:29:26;30.98;;;19.45;;
24891;SDS011;12954;50.688;10.908;2022-11-20T07:31:54;27.38;;;18.15;;
24891;SDS011;12954;50.688;10.908;2022-11-20T07:34:24;28.77;;;18.05;;
24891;SDS011;12954;50.688;10.908;2022-11-20T07:36:53;19.67;;;13.10;;
24891;SDS011;12954;50.688;10.908;2022-11-20T07:39:21;18.67;;;13.40;;
24891;SDS011;12954;50.688;10.908;2022-11-20T07:41:49;22.40;;;15.68;;
24891;SDS011;12954;50.688;10.908;2022-11-20T07:44:18;24.70;;;18.60;;
24891;SDS011;12954;50.688;10.908;2022-11-20T07:46:46;20.70;;;15.23;;
24891;SDS011;12954;50.688;10.908;2022-11-20T07:49:15;18.65;;;13.57;;
24891;SDS011;12954;50.688;10.908;2022-11-20T07:51:45;52.20;;;34.78;;
24891;SDS011;12954;50.688;10.908;2022-11-20T07:54:17;37.90;;;26.25;;
24891;SDS011;12954;50.688;10.908;2022-11-20T07:56:45;28.13;;;20.65;;
24891;SDS011;12954;50.688;10.908;2022-11-20T07:59:14;31.33;;;21.88;;
24891;SDS011;12954;50.688;10.908;2022-11-20T08:01:43;9.57;;;7.20;;
24891;SDS011;12954;50.688;10.908;2022-11-20T08:04:11;5.05;;;3.92;;
24891;SDS011;12954;50.688;10.908;2022-11-20T08:06:41;4.93;;;3.75;;
24891;SDS011;12954;50.688;10.908;2022-11-20T08:09:11;5.07;;;3.85;;
24891;SDS011;12954;50.688;10.908;2022-11-20T08:11:39;4.13;;;3.20;;
24891;SDS011;12954;50.688;10.908;2022-11-20T08:14:25;3.88;;;3.08;;
24891;SDS011;12954;50.688;10.908;2022-11-20T08:16:54;3.60;;;2.80;;
24891;SDS011;12954;50.688;10.908;2022-11-20T08:19:22;3.80;;;2.88;;
24891;SDS011;12954;50.688;10.908;2022-11-20T08:21:50;4.15;;;3.28;;
24891;SDS011;12954;50.688;10.908;2022-11-20T08:24:20;4.57;;;3.75;;
24891;SDS011;12954;50.688;10.908;2022-11-20T08:26:49;4.47;;;3.20;;
24891;SDS011;12954;50.688;10.908;2022-11-20T08:29:18;4.07;;;3.35;;
24891;SDS011;12954;50.688;10.908;2022-11-20T08:31:47;7.55;;;6.28;;
24891;SDS011;12954;50.688;10.908;2022-11-20T08:34:16;6.88;;;5.40;;
24891;SDS011;12954;50.688;10.908;2022-11-20T08:36:44;4.70;;;3.55;;
24891;SDS011;12954;50.688;10.908;2022-11-20T08:39:14;5.93;;;4.88;;
24891;SDS011;12954;50.688;10.908;2022-11-20T08:41:44;5.57;;;4.00;;
24891;SDS011;12954;50.688;10.908;2022-11-20T08:44:13;5.95;;;4.97;;
24891;SDS011;12954;50.688;10.908;2022-11-20T08:46:41;6.00;;;4.25;;
24891;SDS011;12954;50.688;10.908;2022-11-20T08:49:12;6.60;;;4.95;;
24891;SDS011;12954;50.688;10.908;2022-11-20T08:51:41;7.47;;;5.25;;
24891;SDS011;12954;50.688;10.908;2022-11-20T08:54:10;7.63;;;5.90;;
24891;SDS011;12954;50.688;10.908;2022-11-20T08:56:38;6.93;;;5.57;;
24891;SDS011;12954;50.688;10.908;2022-11-20T08:59:09;9.45;;;6.40;;
24891;SDS011;12954;50.688;10.908;2022-11-20T09:01:57;6.85;;;5.78;;
24891;SDS011;12954;50.688;10.908;2022-11-20T09:04:26;7.40;;;6.60;;
24891;SDS011;12954;50.688;10.908;2022-11-20T09:06:54;7.78;;;6.07;;
24891;SDS011;12954;50.688;10.908;2022-11-20T09:09:23;8.18;;;6.38;;
24891;SDS011;12954;50.688;10.908;2022-11-20T09:11:51;8.65;;;6.28;;
24891;SDS011;12954;50.688;10.908;2022-11-20T09:14:21;7.80;;;6.30;;
24891;SDS011;12954;50.688;10.908;2022-11-20T09:16:55;7.53;;;6.18;;
24891;SDS011;12954;50.688;10.908;2022-11-20T09:19:23;8.55;;;6.00;;
24891;SDS011;12954;50.688;10.908;2022-11-20T09:22:01;7.25;;;5.78;;
24891;SDS011;12954;50.688;10.908;2022-11-20T09:24:29;8.45;;;6.07;;
24891;SDS011;12954;50.688;10.908;2022-11-20T09:26:58;7.38;;;5.88;;
24891;SDS011;12954;50.688;10.908;2022-11-20T09:29:30;9.88;;;6.32;;
24891;SDS011;12954;50.688;10.908;2022-11-20T09:31:58;9.05;;;6.45;;
24891;SDS011;12954;50.688;10.908;2022-11-20T09:34:27;9.32;;;7.10;;
24891;SDS011;12954;50.688;10.908;2022-11-20T09:36:55;9.10;;;6.60;;
24891;SDS011;12954;50.688;10.908;2022-11-20T09:39:29;9.18;;;6.65;;
24891;SDS011;12954;50.688;10.908;2022-11-20T09:42:04;8.77;;;6.32;;
24891;SDS011;12954;50.688;10.908;2022-11-20T09:47:46;8.02;;;5.43;;
24891;SDS011;12954;50.688;10.908;2022-11-20T09:50:27;6.50;;;5.15;;
24891;SDS011;12954;50.688;10.908;2022-11-20T09:53:04;8.32;;;6.10;;
24891;SDS011;12954;50.688;10.908;2022-11-20T09:55:39;8.00;;;6.03;;
24891;SDS011;12954;50.688;10.908;2022-11-20T09:58:12;8.57;;;5.93;;
24891;SDS011;12954;50.688;10.908;2022-11-20T10:00:48;6.85;;;5.70;;
24891;SDS011;12954;50.688;10.908;2022-11-20T10:03:24;8.30;;;6.20;;
24891;SDS011;12954;50.688;10.908;2022-11-20T10:06:05;7.60;;;6.18;;
24891;SDS011;12954;50.688;10.908;2022-11-20T10:08:39;8.23;;;6.00;;
24891;SDS011;12954;50.688;10.908;2022-11-20T10:11:13;8.05;;;5.72;;
24891;SDS011;12954;50.688;10.908;2022-11-20T10:13:49;7.47;;;5.80;;
24891;SDS011;12954;50.688;10.908;2022-11-20T10:16:32;7.05;;;5.22;;
24891;SDS011;12954;50.688;10.908;2022-11-20T10:19:10;6.15;;;4.85;;
24891;SDS011;12954;50.688;10.908;2022-11-20T10:21:53;8.65;;;6.47;;
24891;SDS011;12954;50.688;10.908;2022-11-20T10:24:42;6.13;;;4.95;;
24891;SDS011;12954;50.688;10.908;2022-11-20T10:27:22;8.20;;;5.47;;
24891;SDS011;12954;50.688;10.908;2022-11-20T10:30:09;5.70;;;4.75;;
24891;SDS011;12954;50.688;10.908;2022-11-20T10:32:41;5.30;;;4.25;;
24891;SDS011;12954;50.688;10.908;2022-11-20T10:35:16;5.53;;;4.18;;
24891;SDS011;12954;50.688;10.908;2022-11-20T10:37:50;8.05;;;4.97;;
24891;SDS011;12954;50.688;10.908;2022-11-20T10:42:56;5.05;;;4.25;;
24891;SDS011;12954;50.688;10.908;2022-11-20T10:45:38;5.07;;;4.25;;
24891;SDS011;12954;50.688;10.908;2022-11-20T10:48:17;6.40;;;4.50;;
24891;SDS011;12954;50.688;10.908;2022-11-20T10:53:42;5.35;;;4.45;;
24891;SDS011;12954;50.688;10.908;2022-11-20T10:56:20;5.18;;;4.47;;
24891;SDS011;12954;50.688;10.908;2022-11-20T10:59:02;11.43;;;8.45;;
24891;SDS011;12954;50.688;10.908;2022-11-20T11:01:40;19.85;;;14.60;;
24891;SDS011;12954;50.688;10.908;2022-11-20T11:04:17;7.90;;;6.80;;
24891;SDS011;12954;50.688;10.908;2022-11-20T11:06:57;5.90;;;5.18;;
24891;SDS011;12954;50.688;10.908;2022-11-20T11:09:36;5.30;;;4.40;;
24891;SDS011;12954;50.688;10.908;2022-11-20T11:12:10;6.22;;;4.72;;
24891;SDS011;12954;50.688;10.908;2022-11-20T11:14:42;7.53;;;5.88;;
24891;SDS011;12954;50.688;10.908;2022-11-20T11:17:21;6.35;;;5.18;;
24891;SDS011;12954;50.688;10.908;2022-11-20T11:20:02;6.93;;;5.35;;
24891;SDS011;12954;50.688;10.908;2022-11-20T11:22:33;7.38;;;5.88;;
24891;SDS011;12954;50.688;10.908;2022-11-20T11:25:02;7.03;;;5.93;;
24891;SDS011;12954;50.688;10.908;2022-11-20T11:27:31;8.40;;;6.57;;
24891;SDS011;12954;50.688;10.908;2022-11-20T11:30:11;8.40;;;6.32;;
24891;SDS011;12954;50.688;10.908;2022-11-20T11:32:41;6.70;;;5.28;;
24891;SDS011;12954;50.688;10.908;2022-11-20T11:35:24;5.95;;;5.03;;
24891;SDS011;12954;50.688;10.908;2022-11-20T11:38:00;5.43;;;4.85;;
24891;SDS011;12954;50.688;10.908;2022-11-20T11:40:32;6.07;;;4.63;;
24891;SDS011;12954;50.688;10.908;2022-11-20T11:43:04;6.10;;;4.47;;
24891;SDS011;12954;50.688;10.908;2022-11-20T11:46:02;6.38;;;5.32;;
24891;SDS011;12954;50.688;10.908;2022-11-20T11:48:32;5.78;;;4.82;;
24891;SDS011;12954;50.688;10.908;2022-11-20T11:51:01;6.88;;;5.07;;
24891;SDS011;12954;50.688;10.908;2022-11-20T11:53:30;6.78;;;5.13;;
24891;SDS011;12954;50.688;10.908;2022-11-20T11:56:02;12.85;;;8.93;;
24891;SDS011;12954;50.688;10.908;2022-11-20T11:58:40;8.70;;;6.47;;
24891;SDS011;12954;50.688;10.908;2022-11-20T12:01:18;6.78;;;5.30;;
24891;SDS011;12954;50.688;10.908;2022-11-20T12:03:59;9.23;;;6.78;;
24891;SDS011;12954;50.688;10.908;2022-11-20T12:06:34;8.02;;;6.60;;
24891;SDS011;12954;50.688;10.908;2022-11-20T12:09:08;8.48;;;5.82;;
24891;SDS011;12954;50.688;10.908;2022-11-20T12:11:38;7.00;;;6.05;;
24891;SDS011;12954;50.688;10.908;2022-11-20T12:14:14;7.05;;;5.15;;
24891;SDS011;12954;50.688;10.908;2022-11-20T12:16:50;5.80;;;4.60;;
24891;SDS011;12954;50.688;10.908;2022-11-20T12:19:22;7.28;;;4.75;;
24891;SDS011;12954;50.688;10.908;2022-11-20T12:21:55;6.97;;;5.03;;
24891;SDS011;12954;50.688;10.908;2022-11-20T12:24:42;6.40;;;5.40;;
24891;SDS011;12954;50.688;10.908;2022-11-20T12:27:28;6.97;;;5.25;;
24891;SDS011;12954;50.688;10.908;2022-11-20T12:30:16;7.85;;;6.18;;
24891;SDS011;12954;50.688;10.908;2022-11-20T12:35:47;5.63;;;4.00;;
24891;SDS011;12954;50.688;10.908;2022-11-20T12:38:45;6.03;;;4.18;;
24891;SDS011;12954;50.688;10.908;2022-11-20T12:41:26;6.15;;;4.28;;
24891;SDS011;12954;50.688;10.908;2022-11-20T12:44:31;6.63;;;4.75;;
24891;SDS011;12954;50.688;10.908;2022-11-20T12:47:31;6.25;;;4.57;;
24891;SDS011;12954;50.688;10.908;2022-11-20T12:50:13;6.40;;;4.85;;
24891;SDS011;12954;50.688;10.908;2022-11-20T12:52:51;5.95;;;4.53;;
24891;SDS011;12954;50.688;10.908;2022-11-20T12:55:28;6.68;;;4.55;;
24891;SDS011;12954;50.688;10.908;2022-11-20T12:58:10;8.10;;;6.30;;
24891;SDS011;12954;50.688;10.908;2022-11-20T13:00:48;7.20;;;5.57;;
24891;SDS011;12954;50.688;10.908;2022-11-20T13:03:31;8.10;;;6.13;;
24891;SDS011;12954;50.688;10.908;2022-11-20T13:06:10;7.35;;;5.35;;
24891;SDS011;12954;50.688;10.908;2022-11-20T13:08:42;8.32;;;6.03;;
24891;SDS011;12954;50.688;10.908;2022-11-20T13:11:18;8.73;;;6.32;;
24891;SDS011;12954;50.688;10.908;2022-11-20T13:13:58;8.90;;;6.55;;
24891;SDS011;12954;50.688;10.908;2022-11-20T13:19:07;8.27;;;5.70;;
24891;SDS011;12954;50.688;10.908;2022-11-20T13:21:39;7.85;;;6.10;;
24891;SDS011;12954;50.688;10.908;2022-11-20T13:24:20;7.93;;;6.22;;
24891;SDS011;12954;50.688;10.908;2022-11-20T13:29:59;9.98;;;7.10;;
24891;SDS011;12954;50.688;10.908;2022-11-20T13:32:30;11.80;;;9.05;;
24891;SDS011;12954;50.688;10.908;2022-11-20T13:34:59;10.02;;;8.77;;
24891;SDS011;12954;50.688;10.908;2022-11-20T13:37:30;9.57;;;7.40;;
24891;SDS011;12954;50.688;10.908;2022-11-20T13:40:11;9.43;;;6.68;;
24891;SDS011;12954;50.688;10.908;2022-11-20T13:42:45;7.85;;;6.85;;
24891;SDS011;12954;50.688;10.908;2022-11-20T13:45:21;9.13;;;6.00;;
24891;SDS011;12954;50.688;10.908;2022-11-20T13:47:51;8.07;;;5.88;;
24891;SDS011;12954;50.688;10.908;2022-11-20T13:50:21;9.25;;;6.50;;
24891;SDS011;12954;50.688;10.908;2022-11-20T13:53:15;8.82;;;5.65;;
24891;SDS011;12954;50.688;10.908;2022-11-20T13:56:00;9.18;;;6.50;;
24891;SDS011;12954;50.688;10.908;2022-11-20T14:01:14;7.60;;;5.63;;
24891;SDS011;12954;50.688;10.908;2022-11-20T14:03:45;7.85;;;5.57;;
24891;SDS011;12954;50.688;10.908;2022-11-20T14:06:33;8.13;;;5.20;;
24891;SDS011;12954;50.688;10.908;2022-11-20T14:09:10;8.30;;;5.68;;
24891;SDS011;12954;50.688;10.908;2022-11-20T14:11:45;7.47;;;4.90;;
24891;SDS011;12954;50.688;10.908;2022-11-20T14:14:17;8.32;;;5.82;;
24891;SDS011;12954;50.688;10.908;2022-11-20T14:16:48;9.02;;;5.95;;
24891;SDS011;12954;50.688;10.908;2022-11-20T14:19:27;10.00;;;6.38;;
24891;SDS011;12954;50.688;10.908;2022-11-20T14:22:08;9.00;;;6.45;;
24891;SDS011;12954;50.688;10.908;2022-11-20T14:24:38;8.18;;;5.70;;
24891;SDS011;12954;50.688;10.908;2022-11-20T14:27:11;8.90;;;5.75;;
24891;SDS011;12954;50.688;10.908;2022-11-20T14:29:43;7.85;;;5.47;;
24891;SDS011;12954;50.688;10.908;2022-11-20T14:32:14;7.53;;;5.50;;
24891;SDS011;12954;50.688;10.908;2022-11-20T14:34:45;8.35;;;6.32;;
24891;SDS011;12954;50.688;10.908;2022-11-20T14:37:18;8.10;;;5.80;;
24891;SDS011;12954;50.688;10.908;2022-11-20T14:39:50;8.73;;;5.93;;
24891;SDS011;12954;50.688;10.908;2022-11-20T14:42:21;8.15;;;5.82;;
24891;SDS011;12954;50.688;10.908;2022-11-20T14:44:54;8.02;;;6.45;;
24891;SDS011;12954;50.688;10.908;2022-11-20T14:47:25;7.07;;;5.35;;
24891;SDS011;12954;50.688;10.908;2022-11-20T14:49:55;7.35;;;5.10;;
24891;SDS011;12954;50.688;10.908;2022-11-20T14:52:25;8.80;;;6.05;;
24891;SDS011;12954;50.688;10.908;2022-11-20T14:54:55;9.38;;;6.25;;
24891;SDS011;12954;50.688;10.908;2022-11-20T14:57:27;8.40;;;5.72;;
24891;SDS011;12954;50.688;10.908;2022-11-20T15:00:06;10.02;;;6.55;;
24891;SDS011;12954;50.688;10.908;2022-11-20T15:02:46;7.85;;;5.13;;
24891;SDS011;12954;50.688;10.908;2022-11-20T15:05:16;6.88;;;5.30;;
24891;SDS011;12954;50.688;10.908;2022-11-20T15:07:47;8.65;;;6.70;;
24891;SDS011;12954;50.688;10.908;2022-11-20T15:10:21;8.82;;;6.50;;
24891;SDS011;12954;50.688;10.908;2022-11-20T15:12:51;9.43;;;6.68;;
24891;SDS011;12954;50.688;10.908;2022-11-20T15:15:24;15.52;;;11.02;;
24891;SDS011;12954;50.688;10.908;2022-11-20T15:17:58;9.95;;;7.05;;
24891;SDS011;12954;50.688;10.908;2022-11-20T15:20:28;8.50;;;6.00;;
24891;SDS011;12954;50.688;10.908;2022-11-20T15:23:00;9.10;;;6.50;;